createdAt,value
2022-12-11T00:00:49.388Z,99578.75
2022-12-11T00:03:19.003Z,99573.41
2022-12-11T00:05:46.141Z,99572.69
2022-12-11T00:08:13.327Z,99571.88
2022-12-11T00:10:40.075Z,99569.31
2022-12-11T00:13:06.635Z,99566.66
2022-12-11T00:15:33.263Z,99557.81
2022-12-11T00:17:59.927Z,99564.00
2022-12-11T00:20:27.253Z,99562.31
2022-12-11T00:22:53.863Z,99558.78
2022-12-11T00:25:20.386Z,99555.28
2022-12-11T00:27:47.438Z,99559.78
2022-12-11T00:30:14.957Z,99565.09
2022-12-11T00:32:41.706Z,99559.06
2022-12-11T00:35:09.090Z,99554.13
2022-12-11T00:37:35.920Z,99552.41
2022-12-11T00:40:02.580Z,99553.84
2022-12-11T00:42:29.183Z,99563.16
2022-12-11T00:44:56.450Z,99559.25
2022-12-11T00:47:23.018Z,99555.91
2022-12-11T00:49:50.096Z,99560.19
2022-12-11T00:52:17.926Z,99559.41
2022-12-11T00:54:45.129Z,99551.56
2022-12-11T00:57:11.765Z,99553.72
2022-12-11T00:59:38.605Z,99562.25
2022-12-11T01:02:05.158Z,99559.34
2022-12-11T01:04:31.668Z,99563.44
2022-12-11T01:06:58.230Z,99573.81
2022-12-11T01:09:43.361Z,99572.97
2022-12-11T01:12:09.921Z,99568.59
2022-12-11T01:14:36.593Z,99585.19
2022-12-11T01:17:03.272Z,99588.94
2022-12-11T01:19:29.897Z,99599.31
2022-12-11T01:21:56.463Z,99599.59
2022-12-11T01:24:23.053Z,99604.34
2022-12-11T01:26:49.565Z,99614.56
2022-12-11T01:29:16.101Z,99619.19
2022-12-11T01:31:42.692Z,99621.97
2022-12-11T01:34:09.275Z,99621.16
2022-12-11T01:36:35.877Z,99628.28
2022-12-11T01:39:02.427Z,99628.88
2022-12-11T01:41:29.023Z,99631.25
2022-12-11T01:44:21.863Z,99635.50
2022-12-11T01:46:48.330Z,99641.94
2022-12-11T01:49:17.451Z,99646.44
2022-12-11T01:51:52.052Z,99637.72
2022-12-11T01:54:21.063Z,99638.00
2022-12-11T01:56:48.803Z,99648.91
2022-12-11T01:59:18.347Z,99652.81
2022-12-11T02:01:47.776Z,99660.25
2022-12-11T02:04:15.484Z,99652.59
2022-12-11T02:06:47.625Z,99660.28
2022-12-11T02:09:17.818Z,99655.63
2022-12-11T02:11:53.221Z,99666.31
2022-12-11T02:14:31.163Z,99665.88
2022-12-11T02:17:35.680Z,99667.09
2022-12-11T02:20:18.819Z,99673.63
2022-12-11T02:23:07.461Z,99673.75
2022-12-11T02:26:04.755Z,99676.28
2022-12-11T02:28:35.188Z,99669.97
2022-12-11T02:31:12.438Z,99665.50
2022-12-11T02:33:44.426Z,99663.44
2022-12-11T02:36:11.977Z,99672.16
2022-12-11T02:38:41.779Z,99671.19
2022-12-11T02:41:09.656Z,99681.84
2022-12-11T02:43:37.316Z,99689.13
2022-12-11T02:46:04.906Z,99682.44
2022-12-11T02:48:32.511Z,99688.56
2022-12-11T02:51:00.423Z,99686.50
2022-12-11T02:53:29.604Z,99683.38
2022-12-11T02:56:06.232Z,99686.28
2022-12-11T02:58:33.302Z,99678.28
2022-12-11T03:01:00.059Z,99678.28
2022-12-11T03:03:28.903Z,99679.00
2022-12-11T03:05:55.796Z,99677.34
2022-12-11T03:08:22.390Z,99680.00
2022-12-11T03:10:49.102Z,99678.28
2022-12-11T03:13:18.695Z,99679.50
2022-12-11T03:15:55.880Z,99677.94
2022-12-11T03:18:41.839Z,99667.69
2022-12-11T03:21:16.938Z,99664.28
2022-12-11T03:23:56.674Z,99671.44
2022-12-11T03:26:24.220Z,99668.06
2022-12-11T03:29:02.417Z,99671.56
2022-12-11T03:31:37.890Z,99675.91
2022-12-11T03:34:13.282Z,99680.66
2022-12-11T03:36:40.115Z,99683.81
2022-12-11T03:39:11.026Z,99690.59
2022-12-11T03:41:38.696Z,99697.50
2022-12-11T03:44:05.452Z,99698.69
2022-12-11T03:46:35.443Z,99708.88
2022-12-11T03:49:06.648Z,99703.66
2022-12-11T03:51:34.357Z,99703.78
2022-12-11T03:54:01.223Z,99696.06
2022-12-11T03:56:29.002Z,99687.22
2022-12-11T03:58:55.743Z,99680.09
2022-12-11T04:01:22.308Z,99689.75
2022-12-11T04:03:48.831Z,99694.84
2022-12-11T04:06:15.449Z,99689.41
2022-12-11T04:08:42.009Z,99695.56
2022-12-11T04:11:27.229Z,99702.56
2022-12-11T04:14:12.203Z,99694.00
2022-12-11T04:16:38.775Z,99700.41
2022-12-11T04:19:24.396Z,99690.00
2022-12-11T04:22:09.892Z,99687.34
2022-12-11T04:24:36.523Z,99682.75
2022-12-11T04:27:03.174Z,99693.28
2022-12-11T04:29:29.823Z,99692.41
2022-12-11T04:31:56.368Z,99685.16
2022-12-11T04:34:23.082Z,99683.72
2022-12-11T04:36:50.097Z,99686.63
2022-12-11T04:39:16.807Z,99677.94
2022-12-11T04:41:43.482Z,99679.13
2022-12-11T04:44:10.018Z,99672.94
2022-12-11T04:46:36.541Z,99677.19
2022-12-11T04:49:03.167Z,99679.13
2022-12-11T04:51:29.924Z,99673.81
2022-12-11T04:53:56.547Z,99686.03
2022-12-11T04:56:23.171Z,99681.16
2022-12-11T04:58:49.668Z,99683.47
2022-12-11T05:01:20.106Z,99686.13
2022-12-11T05:03:47.320Z,99689.66
2022-12-11T05:06:14.480Z,99692.06
2022-12-11T05:08:42.196Z,99693.63
2022-12-11T05:11:14.818Z,99685.16
2022-12-11T05:13:41.843Z,99686.50
2022-12-11T05:16:10.077Z,99682.63
2022-12-11T05:18:36.722Z,99679.59
2022-12-11T05:21:08.878Z,99675.69
2022-12-11T05:23:35.846Z,99687.81
2022-12-11T05:26:21.845Z,99686.13
2022-12-11T05:28:53.324Z,99691.78
2022-12-11T05:31:22.379Z,99697.13
2022-12-11T05:33:50.350Z,99688.78
2022-12-11T05:36:20.894Z,99701.50
2022-12-11T05:38:47.944Z,99704.16
2022-12-11T05:41:16.995Z,99704.91
2022-12-11T05:43:43.910Z,99703.06
2022-12-11T05:46:13.557Z,99712.72
2022-12-11T05:48:41.430Z,99703.19
2022-12-11T05:51:08.652Z,99706.69
2022-12-11T05:53:39.364Z,99716.13
2022-12-11T05:56:08.379Z,99710.56
2022-12-11T05:58:35.420Z,99716.84
2022-12-11T06:01:02.732Z,99726.28
2022-12-11T06:03:29.337Z,99730.19
2022-12-11T06:05:55.878Z,99737.69
2022-12-11T06:08:22.570Z,99723.28
2022-12-11T06:10:50.313Z,99729.22
2022-12-11T06:13:17.067Z,99725.19
2022-12-11T06:15:43.562Z,99726.06
2022-12-11T06:18:10.750Z,99737.66
2022-12-11T06:20:37.607Z,99744.94
2022-12-11T06:23:04.835Z,99742.25
2022-12-11T06:25:31.511Z,99743.25
2022-12-11T06:27:58.405Z,99745.66
2022-12-11T06:30:39.115Z,99743.25
2022-12-11T06:33:06.556Z,99738.75
2022-12-11T06:35:36.300Z,99735.25
2022-12-11T06:38:06.708Z,99750.13
2022-12-11T06:40:33.223Z,99743.84
2022-12-11T06:42:59.719Z,99757.03
2022-12-11T06:45:26.370Z,99747.56
2022-12-11T06:47:52.927Z,99749.59
2022-12-11T06:50:19.800Z,99765.94
2022-12-11T06:52:46.346Z,99771.50
2022-12-11T06:55:13.378Z,99764.97
2022-12-11T06:57:40.274Z,99773.66
2022-12-11T07:00:07.536Z,99777.03
2022-12-11T07:05:42.626Z,99777.94
2022-12-11T07:08:09.245Z,99784.63
2022-12-11T07:10:35.874Z,99789.16
2022-12-11T07:13:02.596Z,99785.16
2022-12-11T07:15:29.212Z,99785.88
2022-12-11T07:17:55.756Z,99803.31
2022-12-11T07:20:22.518Z,99813.75
2022-12-11T07:22:49.131Z,99816.28
2022-12-11T07:25:15.800Z,99800.28
2022-12-11T07:27:42.446Z,99801.13
2022-12-11T07:30:10.748Z,99811.19
2022-12-11T07:32:37.607Z,99814.25
2022-12-11T07:35:04.637Z,99823.72
2022-12-11T07:37:31.216Z,99821.66
2022-12-11T07:39:57.775Z,99829.63
2022-12-11T07:42:24.296Z,99827.59
2022-12-11T07:44:50.914Z,99839.56
2022-12-11T07:47:19.079Z,99836.91
2022-12-11T07:49:45.592Z,99843.81
2022-12-11T07:52:12.124Z,99840.78
2022-12-11T07:54:38.778Z,99841.38
2022-12-11T07:57:12.239Z,99847.31
2022-12-11T07:59:41.701Z,99850.34
2022-12-11T08:02:13.916Z,99854.25
2022-12-11T08:04:40.550Z,99849.00
2022-12-11T08:07:07.163Z,99843.19
2022-12-11T08:09:33.701Z,99850.47
2022-12-11T08:12:00.296Z,99849.50
2022-12-11T08:14:26.940Z,99845.25
2022-12-11T08:16:53.774Z,99848.16
2022-12-11T08:19:20.434Z,99849.00
2022-12-11T08:21:47.182Z,99849.13
2022-12-11T08:24:16.371Z,99838.31
2022-12-11T08:26:42.875Z,99847.69
2022-12-11T08:29:10.978Z,99859.19
2022-12-11T08:31:37.779Z,99856.72
2022-12-11T08:34:04.868Z,99864.81
2022-12-11T08:36:31.523Z,99870.00
2022-12-11T08:38:58.403Z,99868.94
2022-12-11T08:41:36.706Z,99877.03
2022-12-11T08:44:06.117Z,99878.34
2022-12-11T08:46:33.682Z,99875.97
2022-12-11T08:49:00.552Z,99880.41
2022-12-11T08:51:30.408Z,99880.47
2022-12-11T08:54:01.654Z,99888.50
2022-12-11T08:56:29.219Z,99887.50
2022-12-11T08:58:56.045Z,99885.94
2022-12-11T09:01:25.161Z,99886.59
2022-12-11T09:03:53.062Z,99898.66
2022-12-11T09:06:21.712Z,99896.22
2022-12-11T09:08:52.681Z,99896.63
2022-12-11T09:11:29.012Z,99897.59
2022-12-11T09:13:55.711Z,99901.97
2022-12-11T09:16:24.810Z,99894.91
2022-12-11T09:18:53.527Z,99910.38
2022-12-11T09:21:22.490Z,99911.50
2022-12-11T09:23:49.815Z,99910.50
2022-12-11T09:26:18.483Z,99910.63
2022-12-11T09:28:46.843Z,99908.34
2022-12-11T09:31:18.694Z,99910.28
2022-12-11T09:33:46.057Z,99914.53
2022-12-11T09:36:12.882Z,99908.22
2022-12-11T09:38:39.786Z,99916.81
2022-12-11T09:41:23.132Z,99913.75
2022-12-11T09:44:13.558Z,99921.25
2022-12-11T09:46:40.997Z,99927.44
2022-12-11T09:49:29.330Z,99926.81
2022-12-11T09:52:34.417Z,99913.69
2022-12-11T09:55:13.695Z,99924.75
2022-12-11T09:58:00.224Z,99927.34
2022-12-11T10:00:32.644Z,99916.59
2022-12-11T10:03:08.844Z,99916.50
2022-12-11T10:05:59.665Z,99914.00
2022-12-11T10:08:32.040Z,99921.63
2022-12-11T10:11:07.617Z,99912.63
2022-12-11T10:14:02.024Z,99908.41
2022-12-11T10:16:57.962Z,99901.13
2022-12-11T10:19:30.508Z,99904.97
2022-12-11T10:21:57.984Z,99908.34
2022-12-11T10:27:34.263Z,99902.03
2022-12-11T10:30:13.175Z,99900.31
2022-12-11T10:33:03.002Z,99889.34
2022-12-11T10:35:44.803Z,99900.91
2022-12-11T10:38:16.019Z,99902.88
2022-12-11T10:40:49.640Z,99890.06
2022-12-11T10:43:16.242Z,99888.09
2022-12-11T10:45:54.213Z,99893.03
2022-12-11T10:48:21.356Z,99895.69
2022-12-11T10:50:57.457Z,99897.09
2022-12-11T10:53:24.343Z,99891.59
2022-12-11T10:55:50.848Z,99898.34
2022-12-11T10:58:20.261Z,99904.81
2022-12-11T11:00:49.555Z,99905.25
2022-12-11T11:03:35.888Z,99899.47
2022-12-11T11:06:06.132Z,99898.94
2022-12-11T11:08:44.578Z,99903.03
2022-12-11T11:11:27.148Z,99903.03
2022-12-11T11:14:10.711Z,99903.16
2022-12-11T11:16:38.924Z,99905.41
2022-12-11T11:19:06.130Z,99913.00
2022-12-11T11:21:34.650Z,99917.94
2022-12-11T11:24:01.323Z,99919.75
2022-12-11T11:27:04.415Z,99912.16
2022-12-11T11:29:32.990Z,99910.47
2022-12-11T11:32:15.942Z,99908.25
2022-12-11T11:34:44.132Z,99898.94
2022-12-11T11:37:31.506Z,99902.34
2022-12-11T11:40:04.393Z,99902.34
2022-12-11T11:42:44.141Z,99906.81
2022-12-11T11:45:16.940Z,99901.75
2022-12-11T11:47:51.483Z,99894.56
2022-12-11T11:50:20.590Z,99891.88
2022-12-11T11:52:56.157Z,99897.25
2022-12-11T11:55:47.044Z,99900.91
2022-12-11T11:58:22.783Z,99900.91
2022-12-11T12:00:49.736Z,99895.69
2022-12-11T12:03:18.493Z,99897.78
2022-12-11T12:05:54.998Z,99896.13
2022-12-11T12:08:27.216Z,99899.34
2022-12-11T12:11:15.646Z,99901.75
2022-12-11T12:13:49.552Z,99896.09
2022-12-11T12:16:53.116Z,99894.56
2022-12-11T12:19:29.440Z,99892.44
2022-12-11T12:21:56.090Z,99896.38
2022-12-11T12:24:37.679Z,99894.72
2022-12-11T12:27:53.139Z,99890.06
2022-12-11T12:30:22.904Z,99884.72
2022-12-11T12:33:12.896Z,99887.38
2022-12-11T12:36:07.270Z,99892.44
2022-12-11T12:38:55.471Z,99892.19
2022-12-11T12:41:46.549Z,99893.72
2022-12-11T12:44:16.487Z,99896.09
2022-12-11T12:46:42.975Z,99899.50
2022-12-11T12:49:26.000Z,99905.41
2022-12-11T12:51:53.015Z,99898.09
2022-12-11T12:54:20.104Z,99903.31
2022-12-11T12:56:47.721Z,99912.06
2022-12-11T12:59:25.507Z,99915.56
2022-12-11T13:01:57.943Z,99914.31
2022-12-11T13:04:55.554Z,99905.00
2022-12-11T13:07:30.334Z,99899.50
2022-12-11T13:10:00.949Z,99894.84
2022-12-11T13:12:41.953Z,99896.41
2022-12-11T13:15:40.827Z,99893.28
2022-12-11T13:18:34.897Z,99892.72
2022-12-11T13:21:03.205Z,99893.59
2022-12-11T13:23:32.597Z,99902.59
2022-12-11T13:26:02.159Z,99909.91
2022-12-11T13:28:35.351Z,99912.03
2022-12-11T13:31:07.425Z,99916.50
2022-12-11T13:33:38.047Z,99931.34
2022-12-11T13:36:31.798Z,99933.44
2022-12-11T13:39:03.064Z,99935.41
2022-12-11T13:41:30.886Z,99935.97
2022-12-11T13:43:57.960Z,99942.28
2022-12-11T13:46:30.931Z,99940.63
2022-12-11T13:49:08.748Z,99936.22
2022-12-11T13:51:37.630Z,99953.00
2022-12-11T13:54:17.184Z,99944.56
2022-12-11T13:56:54.499Z,99936.28
2022-12-11T13:59:30.085Z,99942.22
2022-12-11T14:02:21.789Z,99942.78
2022-12-11T14:04:52.011Z,99960.25
2022-12-11T14:07:26.713Z,99946.63
2022-12-11T14:09:59.344Z,99954.63
2022-12-11T14:12:25.871Z,99964.63
2022-12-11T14:14:56.868Z,99962.19
2022-12-11T14:17:29.752Z,99988.97
2022-12-11T14:19:58.213Z,99968.41
2022-12-11T14:22:27.593Z,99984.06
2022-12-11T14:24:56.789Z,99964.22
2022-12-11T14:27:24.503Z,99982.66
2022-12-11T14:29:51.251Z,99968.31
2022-12-11T14:32:32.590Z,99993.22
2022-12-11T14:35:00.012Z,100001.25
2022-12-11T14:37:28.549Z,100013.78
2022-12-11T14:40:04.637Z,99992.97
2022-12-11T14:42:35.007Z,100006.66
2022-12-11T14:45:16.100Z,100000.44
2022-12-11T14:47:43.902Z,100023.97
2022-12-11T14:50:23.907Z,100004.53
2022-12-11T14:52:56.809Z,100029.56
2022-12-11T14:55:33.151Z,100003.94
2022-12-11T14:58:03.513Z,100011.97
2022-12-11T15:00:32.880Z,100015.88
2022-12-11T15:03:09.967Z,100018.56
2022-12-11T15:05:48.644Z,100031.94
2022-12-11T15:08:24.606Z,100036.44
2022-12-11T15:11:04.295Z,100039.97
2022-12-11T15:13:32.007Z,100031.09
2022-12-11T15:15:58.731Z,100039.13
2022-12-11T15:18:37.144Z,100045.06
2022-12-11T15:21:07.060Z,100055.47
2022-12-11T15:23:46.607Z,100054.66
2022-12-11T15:26:13.200Z,100062.53
2022-12-11T15:28:40.169Z,100065.91
2022-12-11T15:31:30.665Z,100071.97
2022-12-11T15:33:57.405Z,100060.84
2022-12-11T15:36:23.904Z,100071.09
2022-12-11T15:38:50.485Z,100075.75
2022-12-11T15:41:21.050Z,100072.59
2022-12-11T15:43:47.930Z,100074.84
2022-12-11T15:46:14.637Z,100089.44
2022-12-11T15:48:41.196Z,100093.38
2022-12-11T15:51:07.734Z,100089.25
2022-12-11T15:53:34.310Z,100090.63
2022-12-11T15:56:00.907Z,100089.34
2022-12-11T15:58:27.890Z,100097.47
2022-12-11T16:00:55.063Z,100103.22
2022-12-11T16:03:23.184Z,100101.78
2022-12-11T16:05:51.530Z,100103.88
2022-12-11T16:08:21.155Z,100104.97
2022-12-11T16:10:48.552Z,100106.06
2022-12-11T16:13:15.426Z,100110.38
2022-12-11T16:15:44.244Z,100121.72
2022-12-11T16:18:16.353Z,100123.41
2022-12-11T16:20:44.464Z,100126.56
2022-12-11T16:23:11.959Z,100116.88
2022-12-11T16:25:39.981Z,100121.47
2022-12-11T16:28:07.837Z,100117.19
2022-12-11T16:30:36.703Z,100115.47
2022-12-11T16:33:11.844Z,100120.97
2022-12-11T16:35:39.326Z,100115.63
2022-12-11T16:38:05.815Z,100125.81
2022-12-11T16:40:32.446Z,100131.00
2022-12-11T16:42:59.095Z,100126.78
2022-12-11T16:45:26.473Z,100125.09
2022-12-11T16:47:53.300Z,100134.16
2022-12-11T16:50:20.321Z,100135.97
2022-12-11T16:52:47.419Z,100139.66
2022-12-11T16:55:14.918Z,100139.94
2022-12-11T16:57:42.103Z,100146.41
2022-12-11T17:00:12.131Z,100140.94
2022-12-11T17:02:38.959Z,100145.03
2022-12-11T17:05:05.948Z,100151.44
2022-12-11T17:07:33.311Z,100154.66
2022-12-11T17:10:01.983Z,100155.94
2022-12-11T17:12:28.817Z,100157.72
2022-12-11T17:14:56.258Z,100168.16
2022-12-11T17:17:22.819Z,100174.16
2022-12-11T17:19:49.439Z,100173.88
2022-12-11T17:22:16.064Z,100175.44
2022-12-11T17:24:42.695Z,100174.25
2022-12-11T17:27:09.262Z,100178.50
2022-12-11T17:29:35.794Z,100177.66
2022-12-11T17:32:03.331Z,100180.50
2022-12-11T17:34:36.084Z,100179.09
2022-12-11T17:37:04.826Z,100185.75
2022-12-11T17:39:31.414Z,100186.16
2022-12-11T17:41:57.920Z,100182.09
2022-12-11T17:44:26.773Z,100189.59
2022-12-11T17:46:53.808Z,100195.50
2022-12-11T17:49:20.457Z,100194.91
2022-12-11T17:51:48.036Z,100201.56
2022-12-11T17:54:14.666Z,100203.25
2022-12-11T17:56:41.436Z,100197.03
2022-12-11T17:59:07.980Z,100202.41
2022-12-11T18:01:34.757Z,100201.78
2022-12-11T18:04:01.948Z,100207.66
2022-12-11T18:06:29.557Z,100209.25
2022-12-11T18:08:56.570Z,100212.44
2022-12-11T18:11:23.904Z,100221.16
2022-12-11T18:13:51.777Z,100225.63
2022-12-11T18:16:21.299Z,100237.22
2022-12-11T18:18:48.595Z,100236.47
2022-12-11T18:21:18.075Z,100233.25
2022-12-11T18:23:45.279Z,100230.06
2022-12-11T18:26:14.433Z,100241.09
2022-12-11T18:28:42.324Z,100249.38
2022-12-11T18:31:09.915Z,100249.47
2022-12-11T18:33:38.848Z,100251.91
2022-12-11T18:36:06.121Z,100250.13
2022-12-11T18:38:33.656Z,100247.25
2022-12-11T18:41:07.361Z,100260.00
2022-12-11T18:43:34.339Z,100257.75
2022-12-11T18:46:00.866Z,100268.84
2022-12-11T18:48:27.407Z,100260.50
2022-12-11T18:50:54.335Z,100267.94
2022-12-11T18:53:21.000Z,100263.84
2022-12-11T18:55:48.961Z,100266.81
2022-12-11T18:58:17.947Z,100273.53
2022-12-11T19:00:45.303Z,100270.50
2022-12-11T19:03:13.726Z,100282.25
2022-12-11T19:05:42.563Z,100266.59
2022-12-11T19:08:10.398Z,100273.06
2022-12-11T19:10:44.769Z,100281.97
2022-12-11T19:13:12.527Z,100282.25
2022-12-11T19:15:43.360Z,100286.88
2022-12-11T19:18:10.658Z,100284.13
2022-12-11T19:20:55.672Z,100291.63
2022-12-11T19:23:24.580Z,100291.06
2022-12-11T19:25:51.429Z,100298.56
2022-12-11T19:28:17.975Z,100295.59
2022-12-11T19:30:46.438Z,100288.41
2022-12-11T19:33:13.487Z,100290.09
2022-12-11T19:35:40.382Z,100296.38
2022-12-11T19:38:08.404Z,100295.41
2022-12-11T19:40:42.571Z,100295.22
2022-12-11T19:43:09.757Z,100293.25
2022-12-11T19:45:36.738Z,100299.47
2022-12-11T19:48:03.432Z,100295.13
2022-12-11T19:50:30.114Z,100299.97
2022-12-11T19:52:56.563Z,100303.38
2022-12-11T19:55:23.178Z,100309.44
2022-12-11T19:57:49.846Z,100304.22
2022-12-11T20:00:16.755Z,100300.72
2022-12-11T20:02:43.456Z,100305.06
2022-12-11T20:05:11.294Z,100310.38
2022-12-11T20:07:38.739Z,100308.75
2022-12-11T20:10:05.925Z,100310.66
2022-12-11T20:12:32.708Z,100304.59
2022-12-11T20:14:59.224Z,100308.44
2022-12-11T20:17:25.813Z,100307.88
2022-12-11T20:19:53.893Z,100309.03
2022-12-11T20:22:20.491Z,100306.56
2022-12-11T20:24:46.991Z,100304.84
2022-12-11T20:27:13.690Z,100296.03
2022-12-11T20:29:40.420Z,100304.16
2022-12-11T20:32:07.560Z,100311.28
2022-12-11T20:34:34.263Z,100301.44
2022-12-11T20:37:00.888Z,100306.66
2022-12-11T20:39:27.500Z,100311.88
2022-12-11T20:41:54.259Z,100313.63
2022-12-11T20:44:20.898Z,100313.75
2022-12-11T20:46:47.528Z,100315.66
2022-12-11T20:49:14.123Z,100320.06
2022-12-11T20:51:41.101Z,100320.25
2022-12-11T20:54:07.996Z,100310.78
2022-12-11T20:56:34.583Z,100310.78
2022-12-11T20:59:01.156Z,100321.38
2022-12-11T21:01:30.670Z,100312.59
2022-12-11T21:03:57.867Z,100314.28
2022-12-11T21:06:30.914Z,100316.00
2022-12-11T21:09:03.932Z,100316.00
2022-12-11T21:11:30.513Z,100320.34
2022-12-11T21:13:57.134Z,100320.34
2022-12-11T21:16:24.531Z,100325.72
2022-12-11T21:18:51.923Z,100324.88
2022-12-11T21:21:18.512Z,100333.81
2022-12-11T21:23:45.244Z,100329.34
2022-12-11T21:26:12.420Z,100329.34
2022-12-11T21:28:39.100Z,100332.94
2022-12-11T21:31:11.248Z,100343.53
2022-12-11T21:33:37.681Z,100347.41
2022-12-11T21:36:06.497Z,100344.94
2022-12-11T21:38:33.529Z,100340.75
2022-12-11T21:41:17.097Z,100341.69
2022-12-11T21:46:32.840Z,100352.66
2022-12-11T21:48:59.501Z,100349.25
2022-12-11T21:51:35.696Z,100351.13
2022-12-11T21:54:05.326Z,100357.34
2022-12-11T21:56:33.057Z,100362.75
2022-12-11T21:59:01.344Z,100358.50
2022-12-11T22:01:35.126Z,100352.31
2022-12-11T22:04:02.126Z,100349.78
2022-12-11T22:06:28.726Z,100356.59
2022-12-11T22:08:55.292Z,100356.44
2022-12-11T22:11:26.140Z,100359.75
2022-12-11T22:13:53.111Z,100358.66
2022-12-11T22:16:19.905Z,100365.72
2022-12-11T22:18:46.911Z,100361.38
2022-12-11T22:21:14.040Z,100362.50
2022-12-11T22:23:40.783Z,100355.66
2022-12-11T22:26:09.006Z,100359.34
2022-12-11T22:28:35.609Z,100366.53
2022-12-11T22:31:02.142Z,100366.69
2022-12-11T22:33:28.764Z,100364.03
2022-12-11T22:35:59.540Z,100368.50
2022-12-11T22:38:26.277Z,100370.38
2022-12-11T22:40:53.955Z,100372.19
2022-12-11T22:43:20.636Z,100372.25
2022-12-11T22:45:47.265Z,100380.38
2022-12-11T22:48:13.885Z,100380.53
2022-12-11T22:50:40.981Z,100387.03
2022-12-11T22:53:07.573Z,100383.72
2022-12-11T22:55:34.449Z,100391.81
2022-12-11T22:58:01.064Z,100396.34
2022-12-11T23:00:27.871Z,100400.03
2022-12-11T23:02:54.464Z,100394.81
2022-12-11T23:05:21.066Z,100389.63
2022-12-11T23:07:47.828Z,100391.38
2022-12-11T23:10:14.503Z,100392.34
2022-12-11T23:12:41.094Z,100400.09
2022-12-11T23:15:08.243Z,100398.22
2022-12-11T23:17:35.119Z,100397.47
2022-12-11T23:20:03.874Z,100399.34
2022-12-11T23:22:30.570Z,100391.38
2022-12-11T23:24:57.168Z,100391.56
2022-12-11T23:27:23.715Z,100388.06
2022-12-11T23:29:50.209Z,100388.91
2022-12-11T23:32:16.730Z,100387.03
2022-12-11T23:34:43.253Z,100387.03
2022-12-11T23:37:10.749Z,100390.63
2022-12-11T23:39:37.354Z,100393.25
2022-12-11T23:42:03.964Z,100384.66
2022-12-11T23:44:30.484Z,100391.81
2022-12-11T23:46:57.039Z,100389.00
2022-12-11T23:49:23.547Z,100382.84
2022-12-11T23:51:50.139Z,100387.19
2022-12-11T23:54:16.647Z,100379.25
2022-12-11T23:56:43.133Z,100376.78
2022-12-11T23:59:12.499Z,100381.38
